createdAt,value
2023-03-10T00:01:16.433Z,9.70
2023-03-10T00:03:43.781Z,9.80
2023-03-10T00:06:12.613Z,9.70
2023-03-10T00:08:40.036Z,9.80
2023-03-10T00:11:07.011Z,9.80
2023-03-10T00:13:33.913Z,9.80
2023-03-10T00:16:01.026Z,9.80
2023-03-10T00:18:28.336Z,9.80
2023-03-10T00:20:55.613Z,9.80
2023-03-10T00:23:23.085Z,9.80
2023-03-10T00:25:58.221Z,9.80
2023-03-10T00:28:26.619Z,9.90
2023-03-10T00:31:06.910Z,9.80
2023-03-10T00:33:35.052Z,9.80
2023-03-10T00:36:12.000Z,9.80
2023-03-10T00:38:39.980Z,9.80
2023-03-10T00:41:15.308Z,9.80
2023-03-10T00:43:42.496Z,9.70
2023-03-10T00:46:10.710Z,9.70
2023-03-10T00:48:38.257Z,9.70
2023-03-10T00:51:06.597Z,9.70
2023-03-10T00:53:35.600Z,9.70
2023-03-10T00:56:04.010Z,9.60
2023-03-10T00:58:32.236Z,9.50
2023-03-10T01:00:59.734Z,9.50
2023-03-10T01:03:28.190Z,9.50
2023-03-10T01:05:55.943Z,9.40
2023-03-10T01:08:23.225Z,9.40
2023-03-10T01:10:50.799Z,9.40
2023-03-10T01:13:19.515Z,9.40
2023-03-10T01:15:50.852Z,9.50
2023-03-10T01:18:19.562Z,9.60
2023-03-10T01:20:46.829Z,9.50
2023-03-10T01:23:19.884Z,9.60
2023-03-10T01:25:47.006Z,9.60
2023-03-10T01:28:14.323Z,9.60
2023-03-10T01:30:41.737Z,9.70
2023-03-10T01:33:10.217Z,9.70
2023-03-10T01:35:38.143Z,9.70
2023-03-10T01:38:05.797Z,9.70
2023-03-10T01:40:32.761Z,9.70
2023-03-10T01:43:22.119Z,9.70
2023-03-10T01:45:48.954Z,9.70
2023-03-10T01:48:17.369Z,9.70
2023-03-10T01:50:46.859Z,9.70
2023-03-10T01:53:16.116Z,9.70
2023-03-10T01:55:50.684Z,9.70
2023-03-10T01:58:22.233Z,9.70
2023-03-10T02:00:51.884Z,9.70
2023-03-10T02:03:28.427Z,9.70
2023-03-10T02:05:59.800Z,9.60
2023-03-10T02:08:31.973Z,9.70
2023-03-10T02:10:59.814Z,9.70
2023-03-10T02:13:26.804Z,9.70
2023-03-10T02:15:53.786Z,9.70
2023-03-10T02:18:22.356Z,9.70
2023-03-10T02:20:54.840Z,9.80
2023-03-10T02:23:34.533Z,9.80
2023-03-10T02:26:09.083Z,9.80
2023-03-10T02:28:35.904Z,9.80
2023-03-10T02:31:03.725Z,9.80
2023-03-10T02:33:32.672Z,9.90
2023-03-10T02:36:04.672Z,9.80
2023-03-10T02:38:31.686Z,9.90
2023-03-10T02:40:58.704Z,9.90
2023-03-10T02:43:32.813Z,9.90
2023-03-10T02:46:02.897Z,9.90
2023-03-10T02:48:33.357Z,9.90
2023-03-10T02:51:02.260Z,10.00
2023-03-10T02:53:30.116Z,10.00
2023-03-10T02:55:58.413Z,10.00
2023-03-10T02:58:26.834Z,10.10
2023-03-10T03:00:53.913Z,10.00
2023-03-10T03:03:21.780Z,10.00
2023-03-10T03:05:49.599Z,10.00
2023-03-10T03:08:18.425Z,10.00
2023-03-10T03:10:45.471Z,10.00
2023-03-10T03:13:12.785Z,10.00
2023-03-10T03:15:39.993Z,10.00
2023-03-10T03:18:07.282Z,10.10
2023-03-10T03:20:36.045Z,10.10
2023-03-10T03:23:03.661Z,10.10
2023-03-10T03:25:31.105Z,10.00
2023-03-10T03:27:58.109Z,10.00
2023-03-10T03:30:28.068Z,9.90
2023-03-10T03:32:56.156Z,9.90
2023-03-10T03:35:33.072Z,10.00
2023-03-10T03:38:00.097Z,10.00
2023-03-10T03:40:28.963Z,9.90
2023-03-10T03:42:56.398Z,9.90
2023-03-10T03:45:26.573Z,9.90
2023-03-10T03:47:53.656Z,9.90
2023-03-10T03:50:22.171Z,10.00
2023-03-10T03:52:49.077Z,9.90
2023-03-10T03:55:17.542Z,9.80
2023-03-10T03:57:47.902Z,9.80
2023-03-10T04:00:19.442Z,9.80
2023-03-10T04:02:46.419Z,9.80
2023-03-10T04:05:13.270Z,9.80
2023-03-10T04:07:41.478Z,9.80
2023-03-10T04:10:15.091Z,9.80
2023-03-10T04:12:41.920Z,9.80
2023-03-10T04:15:08.962Z,9.80
2023-03-10T04:17:36.631Z,9.80
2023-03-10T04:20:08.089Z,9.80
2023-03-10T04:22:36.719Z,9.80
2023-03-10T04:25:04.345Z,9.80
2023-03-10T04:27:31.654Z,9.90
2023-03-10T04:29:58.703Z,9.90
2023-03-10T04:32:25.772Z,9.80
2023-03-10T04:34:52.885Z,9.80
2023-03-10T04:37:21.178Z,9.80
2023-03-10T04:39:48.206Z,9.80
2023-03-10T04:42:15.224Z,9.80
2023-03-10T04:44:42.224Z,9.80
2023-03-10T04:47:09.167Z,9.80
2023-03-10T04:49:38.433Z,9.80
2023-03-10T04:52:05.670Z,9.70
2023-03-10T04:54:32.636Z,9.70
2023-03-10T04:56:59.519Z,9.60
2023-03-10T04:59:26.593Z,9.60
2023-03-10T05:01:53.978Z,9.60
2023-03-10T05:04:20.976Z,9.50
2023-03-10T05:06:51.976Z,9.60
2023-03-10T05:09:19.143Z,9.60
2023-03-10T05:11:47.210Z,9.60
2023-03-10T05:14:14.664Z,9.60
2023-03-10T05:16:42.068Z,9.50
2023-03-10T05:19:09.072Z,9.50
2023-03-10T05:21:36.523Z,9.50
2023-03-10T05:24:03.633Z,9.50
2023-03-10T05:26:33.468Z,9.40
2023-03-10T05:29:01.539Z,9.50
2023-03-10T05:31:28.594Z,9.50
2023-03-10T05:33:55.436Z,9.40
2023-03-10T05:36:22.928Z,9.50
2023-03-10T05:38:50.248Z,9.50
2023-03-10T05:41:17.765Z,9.40
2023-03-10T05:43:44.785Z,9.40
2023-03-10T05:46:12.260Z,9.40
2023-03-10T05:48:39.292Z,9.40
2023-03-10T05:51:12.219Z,9.40
2023-03-10T05:53:39.873Z,9.40
2023-03-10T05:56:13.402Z,9.30
2023-03-10T05:58:41.125Z,9.30
2023-03-10T06:01:08.773Z,9.30
2023-03-10T06:03:37.378Z,9.20
2023-03-10T06:06:06.765Z,9.30
2023-03-10T06:08:34.187Z,9.30
2023-03-10T06:11:01.174Z,9.30
2023-03-10T06:13:28.283Z,9.30
2023-03-10T06:15:57.668Z,9.30
2023-03-10T06:18:25.386Z,9.30
2023-03-10T06:20:53.719Z,9.40
2023-03-10T06:23:21.812Z,9.40
2023-03-10T06:26:10.036Z,9.40
2023-03-10T06:28:39.124Z,9.40
2023-03-10T06:31:08.908Z,9.40
2023-03-10T06:33:36.140Z,9.50
2023-03-10T06:36:03.185Z,9.40
2023-03-10T06:38:30.643Z,9.50
2023-03-10T06:40:58.660Z,9.50
2023-03-10T06:43:25.761Z,9.60
2023-03-10T06:45:53.051Z,9.60
2023-03-10T06:48:20.216Z,9.60
2023-03-10T06:50:48.588Z,9.60
2023-03-10T06:53:18.278Z,9.70
2023-03-10T06:55:45.559Z,9.70
2023-03-10T06:58:12.535Z,9.70
2023-03-10T07:00:39.791Z,9.80
2023-03-10T07:03:07.040Z,9.90
2023-03-10T07:05:34.158Z,9.90
2023-03-10T07:08:00.914Z,10.00
2023-03-10T07:10:27.770Z,10.00
2023-03-10T07:12:58.823Z,10.10
2023-03-10T07:15:26.524Z,10.10
2023-03-10T07:17:56.250Z,10.00
2023-03-10T07:20:24.401Z,10.00
2023-03-10T07:22:51.935Z,10.00
2023-03-10T07:25:19.101Z,10.00
2023-03-10T07:27:46.342Z,10.00
2023-03-10T07:30:13.370Z,10.00
2023-03-10T07:32:40.506Z,10.00
2023-03-10T07:35:07.900Z,10.00
2023-03-10T07:37:38.246Z,10.00
2023-03-10T07:40:07.662Z,9.90
2023-03-10T07:42:34.752Z,9.90
2023-03-10T07:45:01.644Z,9.90
2023-03-10T07:47:28.602Z,9.90
2023-03-10T07:49:55.448Z,9.90
2023-03-10T07:52:22.304Z,9.90
2023-03-10T07:54:49.355Z,10.00
2023-03-10T07:57:16.797Z,10.00
2023-03-10T07:59:43.961Z,9.90
2023-03-10T08:02:14.789Z,9.90
2023-03-10T08:04:42.768Z,9.80
2023-03-10T08:07:09.788Z,9.80
2023-03-10T08:09:37.381Z,9.70
2023-03-10T08:12:05.004Z,9.60
2023-03-10T08:14:32.679Z,9.50
2023-03-10T08:17:00.134Z,9.40
2023-03-10T08:19:28.186Z,9.40
2023-03-10T08:21:57.522Z,9.30
2023-03-10T08:24:25.604Z,9.30
2023-03-10T08:26:52.558Z,9.30
2023-03-10T08:29:19.940Z,9.40
2023-03-10T08:31:47.292Z,9.30
2023-03-10T08:34:15.107Z,9.40
2023-03-10T08:36:42.485Z,9.20
2023-03-10T08:39:10.047Z,9.20
2023-03-10T08:41:45.574Z,9.30
2023-03-10T08:44:15.588Z,9.20
2023-03-10T08:46:46.635Z,9.20
2023-03-10T08:49:16.715Z,9.30
2023-03-10T08:51:44.374Z,9.30
2023-03-10T08:54:14.105Z,9.30
2023-03-10T08:56:41.003Z,9.40
2023-03-10T08:59:07.914Z,9.30
2023-03-10T09:01:36.995Z,9.30
2023-03-10T09:04:05.821Z,9.30
2023-03-10T09:06:32.733Z,9.40
2023-03-10T09:08:59.571Z,9.40
2023-03-10T09:11:29.992Z,9.40
2023-03-10T09:13:57.182Z,9.40
2023-03-10T09:16:25.254Z,9.40
2023-03-10T09:18:52.148Z,9.40
2023-03-10T09:21:19.600Z,9.40
2023-03-10T09:23:48.578Z,9.40
2023-03-10T09:26:16.123Z,9.40
2023-03-10T09:28:42.983Z,9.40
2023-03-10T09:31:16.105Z,9.30
2023-03-10T09:33:43.091Z,9.30
2023-03-10T09:36:10.373Z,9.40
2023-03-10T09:38:37.425Z,9.40
2023-03-10T09:41:33.859Z,9.40
2023-03-10T09:44:26.467Z,9.50
2023-03-10T09:47:02.831Z,9.50
2023-03-10T09:49:37.800Z,9.60
2023-03-10T09:52:28.945Z,9.70
2023-03-10T09:55:06.488Z,9.70
2023-03-10T09:57:34.489Z,9.60
2023-03-10T10:00:08.370Z,9.60
2023-03-10T10:02:41.754Z,9.70
2023-03-10T10:05:23.358Z,9.70
2023-03-10T10:07:57.442Z,9.80
2023-03-10T10:10:38.583Z,9.90
2023-03-10T10:13:26.567Z,9.80
2023-03-10T10:16:33.993Z,9.90
2023-03-10T10:19:01.578Z,9.90
2023-03-10T10:21:54.946Z,9.90
2023-03-10T10:24:22.487Z,9.90
2023-03-10T10:26:49.422Z,10.00
2023-03-10T10:29:23.529Z,10.00
2023-03-10T10:32:05.526Z,9.90
2023-03-10T10:34:33.050Z,10.00
2023-03-10T10:37:00.557Z,10.00
2023-03-10T10:39:32.360Z,10.10
2023-03-10T10:42:25.199Z,10.10
2023-03-10T10:45:02.224Z,10.20
2023-03-10T10:47:33.486Z,10.10
2023-03-10T10:50:27.808Z,10.10
2023-03-10T10:53:24.586Z,10.20
2023-03-10T10:56:17.958Z,10.20
2023-03-10T10:59:00.159Z,10.30
2023-03-10T11:01:27.224Z,10.40
2023-03-10T11:04:08.256Z,10.40
2023-03-10T11:06:37.982Z,10.40
2023-03-10T11:09:08.298Z,10.40
2023-03-10T11:12:32.766Z,10.50
2023-03-10T11:15:20.293Z,10.60
2023-03-10T11:17:57.875Z,10.50
2023-03-10T11:20:33.496Z,10.60
2023-03-10T11:23:17.572Z,10.60
2023-03-10T11:26:25.880Z,10.70
2023-03-10T11:29:04.937Z,10.50
2023-03-10T11:31:58.052Z,10.60
2023-03-10T11:34:35.489Z,10.60
2023-03-10T11:37:30.070Z,10.60
2023-03-10T11:40:16.380Z,10.60
2023-03-10T11:43:13.247Z,10.70
2023-03-10T11:45:54.323Z,10.90
2023-03-10T11:48:41.513Z,10.80
2023-03-10T11:51:33.257Z,11.00
2023-03-10T11:54:05.148Z,11.00
2023-03-10T11:56:32.204Z,10.90
2023-03-10T11:59:08.472Z,10.90
2023-03-10T12:01:48.361Z,10.90
2023-03-10T12:04:23.100Z,10.90
2023-03-10T12:09:45.273Z,11.00
2023-03-10T12:12:20.433Z,10.90
2023-03-10T12:14:48.347Z,10.90
2023-03-10T12:17:17.569Z,11.00
2023-03-10T12:20:16.085Z,11.00
2023-03-10T12:22:51.594Z,10.90
2023-03-10T12:25:30.482Z,10.90
2023-03-10T12:28:16.195Z,10.80
2023-03-10T12:30:56.613Z,10.80
2023-03-10T12:33:38.668Z,10.60
2023-03-10T12:36:32.816Z,10.50
2023-03-10T12:39:02.610Z,10.40
2023-03-10T12:41:41.283Z,10.30
2023-03-10T12:44:48.370Z,10.20
2023-03-10T12:47:23.156Z,9.80
2023-03-10T12:50:22.773Z,9.60
2023-03-10T12:52:57.565Z,9.50
2023-03-10T12:55:28.380Z,9.50
2023-03-10T12:58:14.325Z,9.40
2023-03-10T13:01:06.534Z,9.30
2023-03-10T13:03:44.720Z,9.30
2023-03-10T13:06:13.144Z,9.10
2023-03-10T13:08:39.960Z,9.00
2023-03-10T13:11:19.818Z,9.10
2023-03-10T13:14:03.824Z,9.00
2023-03-10T13:16:31.613Z,9.00
2023-03-10T13:19:00.505Z,8.90
2023-03-10T13:21:33.300Z,8.80
2023-03-10T13:24:02.368Z,8.80
2023-03-10T13:26:29.829Z,8.90
2023-03-10T13:28:59.750Z,8.80
2023-03-10T13:31:32.454Z,8.80
2023-03-10T13:34:13.513Z,8.60
2023-03-10T13:36:41.177Z,8.60
2023-03-10T13:39:16.348Z,8.50
2023-03-10T13:41:48.411Z,7.20
2023-03-10T13:44:21.431Z,6.40
2023-03-10T13:46:53.774Z,6.00
2023-03-10T13:49:25.688Z,5.80
2023-03-10T13:51:55.784Z,5.50
2023-03-10T13:54:25.709Z,5.30
2023-03-10T13:56:56.833Z,5.30
2023-03-10T13:59:27.334Z,5.20
2023-03-10T14:01:58.217Z,5.20
2023-03-10T14:04:51.126Z,5.30
2023-03-10T14:07:23.899Z,5.00
2023-03-10T14:10:06.117Z,5.10
2023-03-10T14:12:40.009Z,4.80
2023-03-10T14:15:28.018Z,4.60
2023-03-10T14:18:07.144Z,4.50
2023-03-10T14:20:45.865Z,4.60
2023-03-10T14:23:36.003Z,4.60
2023-03-10T14:26:10.258Z,4.40
2023-03-10T14:28:37.126Z,4.20
2023-03-10T14:31:06.032Z,4.30
2023-03-10T14:33:33.161Z,4.20
2023-03-10T14:36:00.169Z,4.10
2023-03-10T14:38:27.132Z,3.90
2023-03-10T14:40:54.988Z,3.60
2023-03-10T14:43:27.496Z,3.70
2023-03-10T14:45:57.034Z,3.80
2023-03-10T14:48:26.434Z,3.60
2023-03-10T14:50:56.596Z,3.40
2023-03-10T14:53:25.588Z,3.30
2023-03-10T14:55:56.097Z,3.30
2023-03-10T14:58:47.608Z,3.20
2023-03-10T15:01:15.812Z,3.30
2023-03-10T15:03:42.717Z,3.30
2023-03-10T15:06:18.948Z,3.30
2023-03-10T15:08:45.809Z,3.20
2023-03-10T15:11:13.773Z,3.40
2023-03-10T15:13:41.391Z,3.20
2023-03-10T15:16:13.900Z,3.20
2023-03-10T15:18:40.810Z,3.20
2023-03-10T15:21:09.004Z,3.20
2023-03-10T15:23:35.850Z,3.20
2023-03-10T15:26:09.574Z,3.30
2023-03-10T15:28:37.609Z,3.20
2023-03-10T15:31:05.499Z,3.10
2023-03-10T15:33:33.328Z,3.00
2023-03-10T15:36:00.430Z,3.00
2023-03-10T15:38:27.356Z,2.90
2023-03-10T15:40:54.214Z,3.10
2023-03-10T15:43:21.481Z,3.00
2023-03-10T15:45:50.302Z,2.90
2023-03-10T15:48:17.470Z,2.90
2023-03-10T15:50:48.938Z,2.90
2023-03-10T15:53:15.832Z,2.90
2023-03-10T15:55:42.925Z,3.00
2023-03-10T15:58:11.209Z,2.90
2023-03-10T16:00:38.193Z,3.00
2023-03-10T16:03:05.010Z,2.90
2023-03-10T16:05:31.964Z,2.90
2023-03-10T16:07:58.816Z,3.00
2023-03-10T16:10:25.651Z,3.00
2023-03-10T16:12:52.705Z,3.00
2023-03-10T16:15:19.595Z,3.10
2023-03-10T16:17:46.497Z,3.00
2023-03-10T16:20:14.034Z,3.00
2023-03-10T16:22:42.989Z,3.20
2023-03-10T16:25:18.405Z,3.20
2023-03-10T16:27:46.119Z,3.20
2023-03-10T16:30:17.609Z,3.30
2023-03-10T16:32:46.358Z,3.40
2023-03-10T16:35:14.035Z,3.40
2023-03-10T16:37:40.971Z,3.30
2023-03-10T16:40:08.792Z,3.40
2023-03-10T16:42:36.728Z,3.40
2023-03-10T16:45:05.423Z,3.40
2023-03-10T16:47:33.158Z,3.40
2023-03-10T16:49:59.940Z,3.50
2023-03-10T16:52:26.819Z,3.50
2023-03-10T16:54:58.211Z,3.60
2023-03-10T16:57:25.148Z,3.50
2023-03-10T16:59:52.203Z,3.50
2023-03-10T17:02:19.200Z,3.30
2023-03-10T17:04:46.140Z,3.40
2023-03-10T17:07:14.207Z,3.30
2023-03-10T17:09:41.131Z,3.20
2023-03-10T17:12:08.189Z,3.20
2023-03-10T17:14:35.046Z,3.10
2023-03-10T17:17:02.121Z,3.20
2023-03-10T17:19:30.231Z,2.90
2023-03-10T17:21:58.326Z,2.80
2023-03-10T17:24:25.959Z,2.80
2023-03-10T17:26:55.929Z,2.90
2023-03-10T17:29:22.755Z,3.00
2023-03-10T17:31:51.544Z,3.00
2023-03-10T17:34:19.474Z,2.90
2023-03-10T17:36:49.093Z,3.00
2023-03-10T17:39:19.314Z,3.10
2023-03-10T17:41:46.830Z,3.10
2023-03-10T17:44:14.109Z,3.10
2023-03-10T17:46:41.200Z,3.20
2023-03-10T17:49:11.118Z,3.10
2023-03-10T17:51:39.632Z,3.10
2023-03-10T17:54:07.493Z,2.90
2023-03-10T17:56:34.470Z,2.80
2023-03-10T17:59:01.495Z,2.80
2023-03-10T18:01:30.530Z,2.80
2023-03-10T18:03:59.508Z,2.90
2023-03-10T18:06:29.033Z,2.90
2023-03-10T18:08:57.688Z,2.90
2023-03-10T18:11:25.607Z,3.00
2023-03-10T18:13:52.810Z,3.00
2023-03-10T18:16:23.379Z,3.00
2023-03-10T18:18:50.451Z,3.10
2023-03-10T18:21:18.999Z,3.10
2023-03-10T18:23:46.885Z,3.10
2023-03-10T18:26:17.650Z,3.10
2023-03-10T18:28:44.543Z,3.20
2023-03-10T18:31:20.918Z,3.20
2023-03-10T18:33:48.476Z,3.20
2023-03-10T18:36:17.263Z,3.30
2023-03-10T18:38:45.930Z,3.30
2023-03-10T18:41:13.190Z,3.40
2023-03-10T18:43:40.429Z,3.40
2023-03-10T18:46:08.382Z,3.50
2023-03-10T18:48:35.408Z,3.50
2023-03-10T18:51:02.374Z,3.50
2023-03-10T18:53:29.452Z,3.60
2023-03-10T18:55:57.876Z,3.60
2023-03-10T18:58:24.822Z,3.60
2023-03-10T19:00:52.066Z,3.60
2023-03-10T19:03:19.449Z,3.60
2023-03-10T19:05:46.486Z,3.70
2023-03-10T19:08:13.442Z,3.70
2023-03-10T19:10:40.379Z,3.70
2023-03-10T19:13:08.035Z,3.70
2023-03-10T19:15:37.017Z,3.80
2023-03-10T19:18:04.450Z,3.80
2023-03-10T19:20:31.340Z,3.80
2023-03-10T19:22:58.170Z,3.70
2023-03-10T19:25:25.038Z,3.70
2023-03-10T19:27:52.037Z,3.60
2023-03-10T19:30:20.232Z,3.70
2023-03-10T19:32:47.975Z,3.70
2023-03-10T19:35:16.579Z,3.60
2023-03-10T19:37:43.704Z,3.70
2023-03-10T19:40:21.214Z,3.80
2023-03-10T19:42:48.154Z,3.80
2023-03-10T19:45:17.697Z,3.80
2023-03-10T19:47:46.190Z,3.80
2023-03-10T19:50:16.808Z,3.80
2023-03-10T19:52:45.369Z,3.80
2023-03-10T19:55:20.444Z,3.80
2023-03-10T19:57:48.697Z,3.80
2023-03-10T20:00:18.769Z,3.70
2023-03-10T20:02:46.300Z,3.80
2023-03-10T20:05:16.837Z,3.80
2023-03-10T20:07:46.514Z,3.70
2023-03-10T20:10:15.881Z,3.70
2023-03-10T20:12:42.798Z,3.70
2023-03-10T20:15:10.717Z,3.70
2023-03-10T20:17:38.036Z,3.70
2023-03-10T20:20:10.386Z,3.70
2023-03-10T20:22:39.514Z,3.60
2023-03-10T20:25:08.279Z,3.60
2023-03-10T20:27:35.439Z,3.70
2023-03-10T20:30:10.438Z,3.70
2023-03-10T20:32:37.369Z,3.70
2023-03-10T20:35:04.887Z,3.60
2023-03-10T20:37:33.790Z,3.70
2023-03-10T20:40:00.683Z,3.70
2023-03-10T20:42:27.516Z,3.70
2023-03-10T20:44:54.426Z,3.70
2023-03-10T20:47:21.271Z,3.70
2023-03-10T20:49:48.278Z,3.70
2023-03-10T20:52:15.237Z,3.70
2023-03-10T20:54:42.079Z,3.60
2023-03-10T20:57:08.976Z,3.60
2023-03-10T20:59:37.085Z,3.60
2023-03-10T21:02:05.508Z,3.60
2023-03-10T21:04:33.004Z,3.60
2023-03-10T21:07:00.326Z,3.60
2023-03-10T21:09:27.245Z,3.60
2023-03-10T21:11:54.056Z,3.50
2023-03-10T21:14:20.875Z,3.40
2023-03-10T21:16:47.883Z,3.30
2023-03-10T21:19:14.773Z,3.30
2023-03-10T21:21:41.867Z,3.30
2023-03-10T21:24:09.267Z,3.20
2023-03-10T21:26:36.185Z,3.20
2023-03-10T21:29:04.143Z,3.10
2023-03-10T21:31:31.061Z,3.00
2023-03-10T21:33:58.158Z,3.00
2023-03-10T21:36:25.250Z,2.90
2023-03-10T21:38:52.755Z,3.00
2023-03-10T21:41:23.411Z,3.00
2023-03-10T21:43:50.631Z,3.00
2023-03-10T21:46:17.551Z,3.00
2023-03-10T21:48:44.534Z,3.00
2023-03-10T21:51:16.587Z,3.00
2023-03-10T21:53:43.722Z,3.00
2023-03-10T21:56:10.887Z,3.00
2023-03-10T21:58:38.009Z,3.00
2023-03-10T22:01:06.022Z,3.00
2023-03-10T22:03:34.457Z,3.00
2023-03-10T22:06:04.856Z,3.00
2023-03-10T22:08:33.067Z,3.10
2023-03-10T22:11:00.581Z,3.00
2023-03-10T22:13:28.050Z,3.10
2023-03-10T22:15:55.077Z,3.10
2023-03-10T22:18:21.903Z,3.20
2023-03-10T22:20:48.856Z,3.20
2023-03-10T22:23:16.099Z,3.20
2023-03-10T22:25:42.932Z,3.20
2023-03-10T22:28:10.108Z,3.30
2023-03-10T22:30:38.418Z,3.30
2023-03-10T22:33:06.969Z,3.30
2023-03-10T22:35:35.310Z,3.30
2023-03-10T22:38:02.627Z,3.30
2023-03-10T22:40:30.601Z,3.30
2023-03-10T22:42:57.764Z,3.30
2023-03-10T22:45:30.429Z,3.20
2023-03-10T22:48:01.231Z,3.20
2023-03-10T22:50:35.325Z,3.20
2023-03-10T22:53:05.283Z,3.20
2023-03-10T22:55:35.637Z,3.20
2023-03-10T22:58:04.926Z,3.20
2023-03-10T23:00:32.715Z,3.20
2023-03-10T23:02:59.901Z,3.20
2023-03-10T23:05:27.398Z,3.10
2023-03-10T23:07:54.944Z,3.10
2023-03-10T23:10:25.412Z,3.10
2023-03-10T23:12:53.031Z,3.10
2023-03-10T23:15:25.550Z,3.00
2023-03-10T23:17:53.884Z,3.00
2023-03-10T23:20:24.246Z,3.00
2023-03-10T23:22:51.220Z,2.90
2023-03-10T23:25:27.262Z,3.00
2023-03-10T23:27:54.361Z,2.90
2023-03-10T23:30:21.589Z,2.90
2023-03-10T23:32:50.514Z,2.90
2023-03-10T23:35:21.360Z,2.90
2023-03-10T23:37:48.545Z,2.90
2023-03-10T23:40:18.031Z,3.00
2023-03-10T23:42:45.758Z,3.00
2023-03-10T23:45:18.833Z,3.10
2023-03-10T23:47:46.369Z,3.10
2023-03-10T23:50:19.954Z,3.10
2023-03-10T23:52:47.189Z,3.10
2023-03-10T23:55:17.146Z,3.10
2023-03-10T23:57:44.041Z,3.10
